Heat Index [SAI AWOS/ASOS Display]_________FAA Disclaimer: "Not for use in aviation at this time______________" Untitled Document
Auglaize County Neil Armstrong Airport (AXV)
340
07:31
17/04/29
05
N/A
N/A
29.94
N/A
912
58(F), 14(C)
55(F), 13(C)
58 F
94%
OVC011
7
N/A
N/A
07:31 zulu Wind 340 at 05 Knots, Altimeter 29.94
METAR KAXV 290731Z AUTO 34005KT 7SM VCTS OVC011 14/13 A2994 A02
METAR:
FAA Disclaimer--Advisory Use ONLY, not for flight info-- 3/04/2009: Welcome to the Neil Armstong AXV Graphical AWOS Display, if you find this information useful, please call the airport manager at 419-753-2810. New URL for AWOS smartphone display is http://www.saiawos2.com/AXV
INFO:
Wind Direction:
Wind Speed:
Wind Gust:
Wind Variable:
Altimeter:
Dens Alt:
Elev:
Temp:
Dwpt:
Wind Chill
Rel Humidity:
Ceiling:
Visibility:
Prsnt Wea:
PCPN:
Remarks:
How to read the WebPage